Time;durP1;ratioP1;P1;durP2;ratioP2;P2;SDS_P1;SDS_P2;PMS_P1;PMS_P2;Temp;Humidity;BMP_temperature;BMP_pressure;BME280_temperature;BME280_humidity;BME280_pressure;Samples;Min_cycle;Max_cycle;Signal;HPM_P1;HPM_P2
2022/02/07 00:02:25;;;;;;;4.47;2.60;;;;;;;4.76;72.93;99331.19;5057871;28;20695;-68
2022/02/07 00:04:50;;;;;;;5.97;3.00;;;;;;;4.49;72.46;99331.75;5057514;28;20423;-68
2022/02/07 00:07:18;;;;;;;11.43;2.43;;;;;;;4.20;75.02;99329.69;5057651;28;20416;-68
2022/02/07 00:09:44;;;;;;;8.70;2.63;;;;;;;4.62;74.24;99343.09;5057563;28;20176;-68
2022/02/07 00:12:10;;;;;;;6.63;2.80;;;;;;;4.71;73.63;99345.78;5059339;28;20404;-67
2022/02/07 00:14:35;;;;;;;6.23;2.67;;;;;;;4.52;73.87;99350.72;5061041;28;20213;-68
2022/02/07 00:17:00;;;;;;;9.80;2.80;;;;;;;4.66;73.06;99358.63;5061160;28;20423;-68
2022/02/07 00:19:28;;;;;;;6.43;2.97;;;;;;;4.80;72.94;99366.50;5061624;28;20185;-68
2022/02/07 00:21:54;;;;;;;11.80;3.50;;;;;;;4.88;72.41;99372.66;5061086;28;20174;-68
2022/02/07 00:24:19;;;;;;;6.83;2.87;;;;;;;4.64;73.32;99375.81;5060719;28;20412;-69
2022/02/07 00:26:44;;;;;;;5.10;3.30;;;;;;;4.85;72.85;99388.09;5061108;28;20819;-68
2022/02/07 00:29:11;;;;;;;10.83;3.60;;;;;;;4.95;72.55;99398.50;5061073;28;20170;-67
2022/02/07 00:31:36;;;;;;;6.10;3.07;;;;;;;4.87;73.39;99404.47;5061056;28;20315;-68
2022/02/07 00:34:02;;;;;;;10.23;2.70;;;;;;;4.36;74.16;99409.00;5061013;28;20546;-68
2022/02/07 00:36:27;;;;;;;6.43;2.83;;;;;;;4.62;73.55;99415.38;5060760;28;20217;-68
2022/02/07 00:38:58;;;;;;;3.40;2.50;;;;;;;4.43;74.35;99420.28;5043370;28;20173;-67
2022/02/07 00:41:33;;;;;;;6.33;2.70;;;;;;;4.59;73.70;99433.38;5061317;28;20546;-71
2022/02/07 00:44:09;;;;;;;3.20;2.60;;;;;;;3.96;76.12;99430.78;5061679;28;20413;-67
2022/02/07 00:46:39;;;;;;;6.00;3.03;;;;;;;4.53;74.70;99436.75;5061963;28;20473;-68
2022/02/07 00:49:04;;;;;;;6.53;2.87;;;;;;;4.44;74.79;99436.63;5060981;28;20423;-67
2022/02/07 00:51:29;;;;;;;4.90;2.80;;;;;;;4.33;74.62;99450.25;5060653;28;20730;-67
2022/02/07 00:53:55;;;;;;;4.40;2.70;;;;;;;4.53;75.21;99457.38;5060687;28;20221;-68
2022/02/07 00:56:20;;;;;;;6.47;3.03;;;;;;;4.39;75.27;99486.44;5060500;28;20177;-68
2022/02/07 00:58:45;;;;;;;4.20;2.57;;;;;;;5.04;73.46;99507.97;5060912;28;20177;-68
2022/02/07 01:01:11;;;;;;;4.93;2.37;;;;;;;4.69;73.93;99520.41;5060915;28;20166;-68
2022/02/07 01:03:36;;;;;;;6.07;2.60;;;;;;;4.76;73.07;99536.88;5060287;28;20207;-69
2022/02/07 01:06:01;;;;;;;5.17;2.23;;;;;;;4.24;74.80;99534.41;5060277;28;20177;-69
2022/02/07 01:08:52;;;;;;;5.13;3.13;;;;;;;3.93;75.74;99539.91;5043502;28;20180;-68
2022/02/07 01:11:19;;;;;;;3.30;2.30;;;;;;;3.78;76.48;99535.34;5059526;28;20186;-68
2022/02/07 01:56:42;;;;;;;9.83;2.90;;;;;;;4.53;77.24;99633.78;5059370;28;20443;-68
2022/02/07 01:59:08;;;;;;;11.00;3.60;;;;;;;4.27;78.12;99635.06;5059390;28;20448;-69
2022/02/07 02:01:36;;;;;;;3.97;2.80;;;;;;;4.23;77.49;99636.69;5042780;28;20184;-69
2022/02/07 02:04:02;;;;;;;8.27;3.10;;;;;;;4.32;78.32;99646.31;5059854;28;20173;-71
2022/02/07 02:06:27;;;;;;;7.90;3.33;;;;;;;4.30;79.18;99650.56;5059154;28;20679;-69
2022/02/07 02:08:54;;;;;;;11.57;4.03;;;;;;;4.06;78.97;99657.06;5059053;28;20184;-68
2022/02/07 02:11:20;;;;;;;7.30;3.60;;;;;;;4.32;77.46;99656.66;5059384;28;20169;-69
2022/02/07 02:14:13;;;;;;;10.83;3.70;;;;;;;4.45;77.75;99666.34;5058801;28;20514;-68
2022/02/07 02:16:52;;;;;;;5.67;3.23;;;;;;;4.37;79.00;99671.34;5058742;28;20550;-69
2022/02/07 02:19:48;;;;;;;6.43;3.10;;;;;;;4.39;78.09;99661.91;5059001;28;20419;-67
2022/02/07 02:39:03;;;;;;;9.60;3.37;;;;;;;4.43;77.70;99716.19;5043295;28;20416;-67
2022/02/07 02:46:56;;;;;;;7.60;3.90;;;;;;;4.14;77.88;99737.13;5058557;28;20426;-67
2022/02/07 02:49:24;;;;;;;10.10;3.73;;;;;;;4.53;76.72;99733.56;5058642;28;20817;-67
2022/02/07 02:51:49;;;;;;;9.00;3.40;;;;;;;4.58;76.43;99739.66;5041639;28;20184;-68
2022/02/07 02:54:15;;;;;;;9.50;3.27;;;;;;;4.21;76.87;99750.19;5058194;28;20464;-67
2022/02/07 02:56:40;;;;;;;7.90;3.30;;;;;;;4.26;77.82;99757.13;5058542;28;20247;-69
2022/02/07 02:59:05;;;;;;;6.20;2.60;;;;;;;4.10;78.04;99758.53;5058336;28;20170;-68
2022/02/07 03:01:31;;;;;;;5.37;2.97;;;;;;;4.43;76.79;99757.47;5058162;28;20172;-68
2022/02/07 03:03:56;;;;;;;9.33;3.17;;;;;;;4.79;75.00;99762.44;5058405;28;20162;-68
2022/02/07 03:06:21;;;;;;;8.20;3.07;;;;;;;4.13;76.01;99774.97;5040735;28;20172;-67
2022/02/07 03:08:47;;;;;;;4.97;2.60;;;;;;;4.48;76.05;99779.06;5058216;28;20448;-68
2022/02/07 03:11:16;;;;;;;7.33;2.90;;;;;;;4.64;74.75;99788.84;5058536;28;20188;-68
2022/02/07 03:13:51;;;;;;;5.70;2.70;;;;;;;4.45;75.84;99810.88;5057863;28;20197;-68
2022/02/07 03:16:37;;;;;;;5.47;2.97;;;;;;;4.48;75.58;99807.44;5058016;28;20504;-67
2022/02/07 03:19:07;;;;;;;9.10;3.30;;;;;;;4.09;75.99;99821.31;5043490;28;20443;-68
2022/02/07 03:21:33;;;;;;;6.67;3.83;;;;;;;4.47;74.65;99839.28;5057958;28;20442;-68
2022/02/07 03:23:58;;;;;;;3.60;2.30;;;;;;;4.14;75.76;99859.25;5057691;28;20408;-68
2022/02/07 03:26:24;;;;;;;4.20;2.90;;;;;;;4.34;74.75;99870.00;5057791;28;20430;-68
2022/02/07 03:28:49;;;;;;;6.50;3.80;;;;;;;4.41;74.28;99875.25;5058470;28;20168;-68
2022/02/07 03:31:19;;;;;;;4.07;2.60;;;;;;;4.35;74.66;99865.69;5057792;28;20435;-68
2022/02/07 03:33:45;;;;;;;5.17;2.77;;;;;;;4.35;74.84;99889.78;5057638;28;20213;-69
2022/02/07 03:36:12;;;;;;;6.90;3.13;;;;;;;4.56;75.41;99898.84;5057581;28;20713;-68
2022/02/07 03:38:38;;;;;;;9.30;2.93;;;;;;;4.50;75.68;99901.28;5057918;28;20170;-69
2022/02/07 03:41:03;;;;;;;5.07;2.97;;;;;;;4.30;76.25;99917.22;5058441;28;20397;-69
2022/02/07 03:43:29;;;;;;;8.20;3.00;;;;;;;4.45;75.69;99929.59;5057706;28;20268;-67
2022/02/07 03:45:54;;;;;;;6.73;2.80;;;;;;;4.82;75.13;99939.78;5057878;28;20587;-68
2022/02/07 03:48:20;;;;;;;10.13;3.37;;;;;;;4.48;76.42;99955.44;5061688;28;20253;-68
2022/02/07 03:50:45;;;;;;;8.13;3.03;;;;;;;4.33;77.84;99950.81;5062077;28;20197;-68
2022/02/07 03:53:10;;;;;;;7.37;3.20;;;;;;;4.11;78.42;99964.06;5061673;28;20162;-69
2022/02/07 03:55:37;;;;;;;6.87;2.67;;;;;;;4.26;77.96;99966.97;5028182;28;20189;-67
2022/02/07 03:58:03;;;;;;;8.60;3.00;;;;;;;4.76;77.48;99971.50;5061552;28;20174;-67
2022/02/07 04:00:28;;;;;;;9.70;3.03;;;;;;;4.70;76.92;99985.16;5061502;28;20416;-68
2022/02/07 04:02:55;;;;;;;7.07;2.60;;;;;;;4.54;76.60;99996.00;5062025;28;20166;-67
2022/02/07 04:05:41;;;;;;;9.07;2.97;;;;;;;4.14;78.14;100000.25;5044387;28;20223;-68
2022/02/07 04:08:08;;;;;;;11.77;3.60;;;;;;;4.30;77.79;100028.16;5061587;28;20439;-68
2022/02/07 04:10:40;;;;;;;11.43;3.37;;;;;;;4.77;76.57;100034.38;5061382;28;20453;-68
2022/02/07 04:13:08;;;;;;;8.27;4.27;;;;;;;4.52;77.07;100047.59;5061413;28;20507;-68
2022/02/07 04:15:34;;;;;;;7.40;3.10;;;;;;;4.83;76.01;100052.56;5061093;28;20412;-68
2022/02/07 04:18:03;;;;;;;9.77;4.10;;;;;;;4.25;77.06;100070.16;5061305;28;20854;-68
2022/02/07 04:20:29;;;;;;;6.53;3.00;;;;;;;4.47;78.13;100079.31;5061527;28;20201;-67
2022/02/07 04:22:54;;;;;;;6.83;2.57;;;;;;;4.47;77.29;100092.22;5043906;28;20469;-69
2022/02/07 04:25:20;;;;;;;7.30;3.37;;;;;;;4.67;76.60;100085.78;5060962;28;20248;-68
2022/02/07 04:27:45;;;;;;;5.90;3.03;;;;;;;4.50;76.91;100098.28;5044340;28;20528;-68
2022/02/07 04:30:11;;;;;;;4.23;3.47;;;;;;;4.76;75.90;100103.19;5060899;28;20555;-68
2022/02/07 04:32:37;;;;;;;6.37;2.97;;;;;;;4.36;76.76;100118.63;5060824;28;20169;-68
2022/02/07 04:35:02;;;;;;;5.37;2.60;;;;;;;4.70;76.42;100128.88;5050840;28;20510;-69
2022/02/07 04:37:28;;;;;;;6.60;2.60;;;;;;;4.41;76.95;100138.50;5080808;28;20169;-68
2022/02/07 04:39:54;;;;;;;8.87;2.93;;;;;;;4.15;78.00;100134.41;5080987;28;20684;-68
2022/02/07 04:42:21;;;;;;;4.60;2.43;;;;;;;4.35;77.59;100147.81;5080523;28;20173;-68
2022/02/07 04:45:03;;;;;;;6.77;2.67;;;;;;;4.33;77.32;100156.38;5080390;28;20832;-69
2022/02/07 04:58:13;;;;;;;5.23;2.43;;;;;;;4.28;78.49;100182.06;5079812;28;20423;-68
2022/02/07 05:00:49;;;;;;;4.90;2.57;;;;;;;4.14;79.18;100192.03;5080775;28;20722;-68
2022/02/07 05:03:23;;;;;;;14.30;3.13;;;;;;;4.30;78.41;100192.41;5080350;28;20426;-67
2022/02/07 05:13:49;;;;;;;7.07;2.70;;;;;;;4.22;78.76;100233.50;5080175;28;20470;-68
2022/02/07 05:16:21;;;;;;;5.10;2.70;;;;;;;4.88;78.61;100249.81;5064951;28;20430;-68
2022/02/07 05:18:53;;;;;;;6.20;2.90;;;;;;;4.46;79.27;100251.34;5080060;28;20488;-68
2022/02/07 05:21:18;;;;;;;8.03;3.03;;;;;;;4.58;78.62;100248.22;5080010;28;20411;-67
2022/02/07 05:23:43;;;;;;;7.23;3.50;;;;;;;4.63;79.00;100256.97;5079954;28;20422;-68
2022/02/07 05:26:09;;;;;;;7.90;3.17;;;;;;;4.95;77.93;100256.91;5079775;28;20196;-67
2022/02/07 05:28:34;;;;;;;10.87;2.93;;;;;;;4.64;78.38;100260.41;5080233;28;20173;-67
2022/02/07 05:30:59;;;;;;;8.10;3.10;;;;;;;4.53;79.13;100278.19;5079672;28;20173;-68
2022/02/07 05:33:24;;;;;;;6.90;4.03;;;;;;;4.95;77.58;100272.41;5079477;28;20173;-68
2022/02/07 05:35:50;;;;;;;11.60;3.40;;;;;;;4.85;77.68;100285.91;5065181;28;20281;-67
2022/02/07 05:38:15;;;;;;;9.17;3.53;;;;;;;5.10;77.59;100296.84;5059581;28;20562;-67
2022/02/07 05:41:00;;;;;;;6.27;3.00;;;;;;;4.73;77.84;100301.97;5060191;28;20170;-68
2022/02/07 05:43:25;;;;;;;10.43;3.70;;;;;;;5.13;78.17;100305.56;5061561;28;20517;-67
2022/02/07 05:45:50;;;;;;;6.87;3.40;;;;;;;4.84;77.60;100308.31;5059439;28;20503;-68
2022/02/07 05:48:16;;;;;;;13.90;3.80;;;;;;;5.08;77.91;100319.22;5059329;28;20177;-68
2022/02/07 05:50:41;;;;;;;13.43;3.40;;;;;;;4.79;78.62;100325.38;5059266;28;20193;-68
2022/02/07 05:53:06;;;;;;;13.47;4.47;;;;;;;4.84;78.37;100335.81;5059637;28;20440;-68
2022/02/07 05:55:32;;;;;;;8.73;3.33;;;;;;;5.19;77.23;100341.00;5041778;28;20511;-68
2022/02/07 05:57:57;;;;;;;9.10;3.13;;;;;;;5.16;76.54;100346.97;5059081;28;20181;-68
2022/02/07 06:00:22;;;;;;;6.97;3.30;;;;;;;4.71;77.87;100345.81;5059793;28;20181;-68
2022/02/07 06:02:48;;;;;;;11.80;3.73;;;;;;;5.28;76.25;100349.00;5059207;28;20170;-69
2022/02/07 06:05:13;;;;;;;16.73;4.23;;;;;;;5.32;75.92;100361.16;5041613;28;20260;-67
2022/02/07 06:07:38;;;;;;;14.40;3.67;;;;;;;5.20;75.02;100366.88;5042739;28;20165;-68
2022/02/07 06:10:05;;;;;;;7.47;3.87;;;;;;;5.27;75.93;100367.06;5058705;28;20587;-68
2022/02/07 06:12:35;;;;;;;8.83;3.70;;;;;;;5.25;74.76;100385.13;5058814;28;20180;-68
2022/02/07 06:15:00;;;;;;;8.67;3.00;;;;;;;5.34;74.27;100385.31;5041714;28;20726;-67
2022/02/07 06:17:26;;;;;;;12.50;4.50;;;;;;;5.23;74.80;100395.38;5058699;28;20426;-68
2022/02/07 06:19:53;;;;;;;10.20;3.63;;;;;;;5.36;74.64;100414.69;5058641;28;20261;-68
2022/02/07 06:22:18;;;;;;;9.20;3.90;;;;;;;5.31;73.02;100418.00;5059119;28;20162;-69
2022/02/07 06:24:43;;;;;;;10.90;3.17;;;;;;;5.51;72.94;100423.69;5058454;28;20478;-69
2022/02/07 06:27:09;;;;;;;11.50;4.20;;;;;;;5.49;72.85;100433.94;5058570;28;20177;-68
2022/02/07 06:29:34;;;;;;;13.50;4.33;;;;;;;5.52;71.84;100440.91;5059023;28;20184;-68
2022/02/07 06:31:59;;;;;;;9.43;3.40;;;;;;;5.61;71.84;100450.63;5058507;28;20174;-68
2022/02/07 06:34:25;;;;;;;9.13;3.50;;;;;;;5.82;70.00;100456.34;5058342;28;20204;-68
2022/02/07 06:36:50;;;;;;;7.03;3.37;;;;;;;5.82;70.49;100470.97;5059154;28;20185;-68
2022/02/07 06:39:15;;;;;;;12.47;4.17;;;;;;;6.02;71.01;100479.25;5058429;28;20294;-68
2022/02/07 06:41:42;;;;;;;9.03;3.70;;;;;;;6.04;69.89;100473.28;5058307;28;20173;-68
2022/02/07 06:44:08;;;;;;;11.20;4.43;;;;;;;6.10;69.61;100487.19;5058563;28;20192;-68
2022/02/07 06:46:34;;;;;;;12.87;4.03;;;;;;;6.04;70.51;100493.09;5058048;28;20692;-69
2022/02/07 06:48:59;;;;;;;15.37;4.50;;;;;;;5.91;71.26;100484.13;5058142;28;20252;-69
2022/02/07 06:51:24;;;;;;;13.10;4.27;;;;;;;5.60;71.79;100491.09;5041423;28;20166;-69
2022/02/07 06:53:51;;;;;;;10.63;4.00;;;;;;;5.55;72.25;100496.19;5057930;28;20376;-68
2022/02/07 06:56:16;;;;;;;12.27;4.60;;;;;;;5.51;71.82;100501.25;5058127;28;20182;-68
2022/02/07 06:58:41;;;;;;;11.60;4.47;;;;;;;5.93;70.85;100516.09;5058279;28;20775;-68
2022/02/07 07:01:07;;;;;;;15.50;4.20;;;;;;;5.40;72.45;100529.41;5057868;28;20178;-67
2022/02/07 07:03:34;;;;;;;13.70;4.40;;;;;;;5.38;70.82;100526.75;5057805;28;20169;-67
2022/02/07 07:05:59;;;;;;;10.23;3.93;;;;;;;5.62;70.13;100525.66;5058587;28;20162;-68
2022/02/07 07:08:24;;;;;;;9.37;3.83;;;;;;;5.59;70.03;100530.75;5057954;28;20416;-66
2022/02/07 07:10:53;;;;;;;9.20;3.93;;;;;;;5.66;70.24;100544.72;5058209;28;20578;-67
2022/02/07 07:13:24;;;;;;;16.90;4.63;;;;;;;5.56;69.68;100556.50;5058069;28;20164;-67
2022/02/07 07:16:00;;;;;;;15.80;3.80;;;;;;;5.94;68.27;100548.91;5057772;28;20416;-67
2022/02/07 07:18:25;;;;;;;12.10;4.70;;;;;;;5.79;68.69;100559.75;5057871;28;20419;-66
2022/02/07 07:20:51;;;;;;;18.43;4.90;;;;;;;6.00;69.00;100563.75;5058189;28;20416;-67
2022/02/07 07:23:16;;;;;;;10.57;4.23;;;;;;;6.15;67.26;100573.59;5046389;28;20177;-67
2022/02/07 07:25:44;;;;;;;12.47;4.60;;;;;;;6.55;66.72;100582.34;5065148;28;20176;-67
2022/02/07 07:28:12;;;;;;;11.93;4.40;;;;;;;6.50;67.00;100574.44;5064514;28;20176;-67
2022/02/07 07:30:46;;;;;;;13.73;4.60;;;;;;;5.91;67.07;100579.84;5047620;28;20412;-66
2022/02/07 07:33:16;;;;;;;16.83;4.50;;;;;;;5.83;67.08;100596.91;5064217;28;20469;-67
2022/02/07 07:35:41;;;;;;;19.77;5.00;;;;;;;6.10;66.40;100601.06;5064222;28;20564;-66
2022/02/07 07:38:07;;;;;;;11.17;4.07;;;;;;;6.33;65.57;100612.00;5064922;28;20812;-66
2022/02/07 07:40:32;;;;;;;21.83;5.13;;;;;;;6.48;64.90;100619.28;5064404;28;20528;-66
2022/02/07 07:42:57;;;;;;;15.07;5.23;;;;;;;6.32;65.57;100624.09;5064291;28;20260;-66
2022/02/07 07:45:30;;;;;;;12.37;4.23;;;;;;;6.46;66.28;100631.31;5064623;28;20287;-66
2022/02/07 07:48:00;;;;;;;16.50;6.50;;;;;;;6.29;65.42;100636.97;5064572;28;20177;-66
2022/02/07 07:51:22;;;;;;;14.27;4.80;;;;;;;5.95;65.62;100643.78;5064359;28;20812;-66
2022/02/07 08:03:44;;;;;;;13.37;4.57;;;;;;;6.52;61.83;100670.31;5067166;28;20427;-69
2022/02/07 08:06:15;;;;;;;8.20;4.47;;;;;;;10.22;64.27;100659.44;5066038;28;20480;-54
2022/02/07 08:08:49;;;;;;;11.97;4.40;;;;;;;8.66;55.13;100679.09;5067395;28;20458;-71
2022/02/07 08:11:15;;;;;;;15.97;4.87;;;;;;;7.29;58.55;100694.56;5065870;28;20407;-71
2022/02/07 08:13:43;;;;;;;18.70;5.67;;;;;;;7.40;58.85;100703.47;5064542;28;20464;-71
2022/02/07 08:16:09;;;;;;;17.70;5.20;;;;;;;7.16;58.81;100703.81;5064117;28;20419;-71
2022/02/07 08:18:34;;;;;;;10.60;4.60;;;;;;;8.43;55.79;100713.31;5064496;28;20524;-71
2022/02/07 08:20:59;;;;;;;12.50;4.20;;;;;;;8.68;54.71;100720.69;5064129;28;20454;-71
2022/02/07 08:23:25;;;;;;;9.53;4.60;;;;;;;9.16;54.09;100740.53;5063907;28;20264;-71
2022/02/07 08:25:52;;;;;;;18.07;5.13;;;;;;;9.76;51.96;100735.31;5064555;28;20174;-70
2022/02/07 08:28:17;;;;;;;15.50;5.00;;;;;;;10.47;49.17;100748.28;5064097;28;20227;-71
2022/02/07 08:30:42;;;;;;;16.70;5.00;;;;;;;10.72;49.74;100738.97;5063945;28;20420;-73
2022/02/07 08:33:07;;;;;;;16.60;5.73;;;;;;;10.73;49.62;100754.63;5063096;28;20165;-69
2022/02/07 08:35:33;;;;;;;17.33;5.87;;;;;;;11.18;49.12;100768.03;5060572;28;20638;-69
2022/02/07 08:37:59;;;;;;;11.03;4.90;;;;;;;10.97;48.65;100763.53;5060760;28;20207;-68
2022/02/07 08:40:26;;;;;;;16.20;5.50;;;;;;;11.66;47.28;100768.34;5066916;28;20188;-68
2022/02/07 08:42:52;;;;;;;16.90;5.10;;;;;;;11.70;46.78;100780.56;5059704;28;20394;-68
2022/02/07 08:45:18;;;;;;;18.67;6.30;;;;;;;11.60;45.90;100792.69;5066141;28;20432;-68
2022/02/07 08:47:44;;;;;;;12.77;4.80;;;;;;;11.51;45.99;100797.00;5080915;28;20538;-68
2022/02/07 08:50:10;;;;;;;11.73;4.77;;;;;;;11.21;46.29;100793.28;5080289;28;20415;-68
2022/02/07 08:52:41;;;;;;;12.67;5.20;;;;;;;11.68;46.47;100797.97;5080319;28;20542;-71
2022/02/07 08:55:07;;;;;;;12.00;5.37;;;;;;;11.89;45.46;100804.19;5080308;28;20843;-68
2022/02/07 08:57:38;;;;;;;15.17;5.80;;;;;;;12.24;45.07;100800.88;5080166;28;20419;-68
2022/02/07 09:00:15;;;;;;;19.40;6.27;;;;;;;12.10;45.38;100820.00;5080136;28;20415;-68
2022/02/07 09:05:33;;;;;;;19.03;6.33;;;;;;;10.95;47.29;100828.72;5080026;28;20502;-69
2022/02/07 09:10:43;;;;;;;17.70;6.07;;;;;;;9.58;51.96;100859.13;5080080;28;20422;-69
2022/02/07 09:13:09;;;;;;;24.77;7.17;;;;;;;8.72;54.87;100881.91;5079727;28;20435;-68
2022/02/07 09:18:07;;;;;;;13.97;6.33;;;;;;;8.25;58.94;100899.97;5063351;28;20173;-69
2022/02/07 09:20:36;;;;;;;15.63;5.53;;;;;;;9.42;55.97;100904.84;5080041;28;20426;-69
2022/02/07 09:23:02;;;;;;;15.10;5.60;;;;;;;9.60;54.16;100904.25;5079710;28;20419;-69
2022/02/07 09:25:28;;;;;;;16.93;5.60;;;;;;;9.30;55.69;100915.03;5080129;28;20635;-68
2022/02/07 09:27:54;;;;;;;16.70;5.27;;;;;;;8.59;56.92;100911.09;5079872;28;20415;-68
2022/02/07 09:30:20;;;;;;;20.33;5.87;;;;;;;8.83;55.15;100917.63;5079306;28;20169;-67
2022/02/07 09:32:46;;;;;;;5.10;3.60;;;;;;;7.67;55.97;100939.31;5079848;28;20669;-66
2022/02/07 09:35:11;;;;;;;14.03;6.80;;;;;;;8.54;53.53;100934.41;5079129;28;20231;-68
2022/02/07 09:37:37;;;;;;;9.67;4.87;;;;;;;10.09;50.59;100938.03;5079570;28;20446;-67
2022/02/07 09:40:03;;;;;;;14.67;5.13;;;;;;;10.39;49.41;100944.56;5079771;28;20173;-68
2022/02/07 09:42:29;;;;;;;12.00;4.67;;;;;;;9.72;50.46;100945.25;5079299;28;20438;-67
2022/02/07 09:45:05;;;;;;;15.80;5.00;;;;;;;9.50;51.35;100946.63;5060941;28;20427;-66
2022/02/07 09:47:31;;;;;;;9.83;4.50;;;;;;;8.73;53.11;100961.63;5063987;28;20200;-69
2022/02/07 09:49:57;;;;;;;12.30;4.40;;;;;;;8.50;54.20;100971.56;5061978;28;20442;-69
2022/02/07 09:52:22;;;;;;;10.57;4.73;;;;;;;8.49;53.78;100971.53;5079334;28;20411;-67
2022/02/07 09:54:47;;;;;;;31.17;6.57;;;;;;;8.81;54.10;100969.59;5079718;28;20200;-68
2022/02/07 09:57:16;;;;;;;14.23;4.73;;;;;;;8.20;54.81;100987.28;5080252;28;20172;-67
2022/02/07 09:59:43;;;;;;;13.73;6.10;;;;;;;8.91;53.65;100984.53;5079843;28;20539;-67
2022/02/07 10:02:23;;;;;;;15.63;5.27;;;;;;;9.59;51.96;101006.66;5079623;28;20421;-68
2022/02/07 10:04:50;;;;;;;17.97;5.37;;;;;;;8.81;52.71;101016.41;5062305;28;20433;-67
2022/02/07 10:07:29;;;;;;;12.43;4.63;;;;;;;8.57;52.95;101012.41;5078860;28;20389;-66
2022/02/07 10:13:10;;;;;;;13.57;6.33;;;;;;;10.96;47.52;101012.22;5080598;28;20733;-68
2022/02/07 10:15:47;;;;;;;16.13;4.80;;;;;;;10.78;48.30;101024.16;5079382;28;20445;-69
2022/02/07 10:43:29;;;;;;;13.50;6.37;;;;;;;10.18;52.07;101058.84;5078376;28;20252;-68
2022/02/07 10:46:03;;;;;;;9.43;4.70;;;;;;;11.11;49.55;101050.66;5078386;28;20519;-68
2022/02/07 10:48:37;;;;;;;15.57;5.03;;;;;;;11.07;49.53;101059.31;5061303;28;20449;-67
2022/02/07 10:51:20;;;;;;;14.10;5.50;;;;;;;11.98;47.37;101049.84;5060640;28;20426;-68
2022/02/07 10:53:49;;;;;;;12.50;4.83;;;;;;;11.74;48.09;101046.09;5077572;28;20426;-68
2022/02/07 10:56:17;;;;;;;17.40;5.30;;;;;;;11.74;46.78;101040.88;5077769;28;20837;-67
2022/02/07 10:58:42;;;;;;;15.40;5.33;;;;;;;11.20;48.49;101035.09;5075264;28;20518;-67
2022/02/07 11:01:24;;;;;;;14.03;5.97;;;;;;;12.02;46.64;101046.41;5057920;28;20711;-68
2022/02/07 11:03:54;;;;;;;16.40;5.47;;;;;;;10.97;46.69;101065.25;5057606;28;20174;-67
2022/02/07 11:06:41;;;;;;;15.70;5.60;;;;;;;11.27;46.82;101077.78;5057615;28;20741;-68
2022/02/07 11:09:08;;;;;;;11.70;5.57;;;;;;;11.82;45.57;101079.28;5057554;28;20519;-68
2022/02/07 11:24:57;;;;;;;10.13;4.73;;;;;;;9.25;49.36;101081.47;5057362;28;20428;-69
2022/02/07 11:27:29;;;;;;;13.47;5.23;;;;;;;8.45;49.95;101120.38;5057699;28;20391;-69
2022/02/07 11:29:54;;;;;;;9.87;4.07;;;;;;;9.23;48.73;101116.09;5057591;28;20896;-69
2022/02/07 11:32:38;;;;;;;11.77;4.20;;;;;;;10.18;47.78;101129.19;5040323;28;20421;-67
2022/02/07 11:35:07;;;;;;;9.57;4.70;;;;;;;9.25;48.30;101137.81;5065291;28;20282;-68
2022/02/07 11:37:33;;;;;;;14.70;4.33;;;;;;;9.57;48.55;101128.06;5077685;28;20423;-68
2022/02/07 11:39:58;;;;;;;11.80;4.50;;;;;;;10.18;46.49;101145.69;5077647;28;20390;-70
2022/02/07 11:42:23;;;;;;;15.80;4.17;;;;;;;10.79;47.37;101129.34;5077417;28;20484;-69
2022/02/07 11:44:52;;;;;;;11.47;4.87;;;;;;;11.25;45.03;101131.72;5077825;28;20593;-69
2022/02/07 11:47:23;;;;;;;15.43;4.87;;;;;;;10.81;46.01;101127.66;5077470;28;20188;-69
2022/02/07 11:49:51;;;;;;;13.63;4.47;;;;;;;11.74;44.63;101150.59;5077564;28;20430;-71
2022/02/07 11:52:37;;;;;;;9.67;3.87;;;;;;;11.04;46.03;101156.69;5077608;28;20425;-71
2022/02/07 11:55:09;;;;;;;11.80;4.77;;;;;;;10.90;45.97;101166.03;5077421;28;20469;-71
2022/02/07 11:57:37;;;;;;;8.50;4.03;;;;;;;9.89;48.05;101171.19;5077203;28;20415;-71
2022/02/07 12:00:18;;;;;;;17.40;4.80;;;;;;;10.73;46.74;101182.28;5077576;28;20634;-71
2022/02/07 12:02:50;;;;;;;9.20;4.10;;;;;;;11.08;46.99;101178.44;5077153;28;20411;-73
2022/02/07 12:05:18;;;;;;;12.33;4.00;;;;;;;10.49;46.35;101197.53;5077333;28;20419;-71
2022/02/07 12:08:04;;;;;;;10.00;4.07;;;;;;;10.90;47.45;101195.56;5078091;28;20470;-70
2022/02/07 12:13:04;;;;;;;9.80;4.33;;;;;;;10.39;47.98;101207.78;5064202;28;20694;-70
2022/02/07 12:15:37;;;;;;;11.40;4.40;;;;;;;10.44;47.41;101200.94;5081017;28;20760;-70
2022/02/07 12:18:12;;;;;;;15.40;4.00;;;;;;;10.81;46.83;101223.25;5080922;28;20390;-71
2022/02/07 12:20:37;;;;;;;9.30;3.70;;;;;;;11.08;46.71;101223.72;5080981;28;20419;-68
2022/02/07 12:23:15;;;;;;;14.17;4.70;;;;;;;10.24;48.19;101223.09;5080792;28;20803;-69
2022/02/07 12:25:52;;;;;;;9.40;4.23;;;;;;;9.87;49.29;101222.41;5063735;28;20181;-67
2022/02/07 12:28:32;;;;;;;12.70;4.80;;;;;;;9.59;49.38;101216.59;5080707;28;20658;-69
2022/02/07 12:33:44;;;;;;;10.60;3.90;;;;;;;10.34;49.36;101235.47;5080950;28;20393;-67
2022/02/07 12:36:09;;;;;;;7.90;4.03;;;;;;;9.74;49.52;101240.38;5081566;28;20442;-67
2022/02/07 12:38:40;;;;;;;8.20;4.00;;;;;;;9.63;50.05;101243.59;5081307;28;20421;-69
2022/02/07 12:41:08;;;;;;;12.03;4.50;;;;;;;10.28;48.70;101245.75;5080854;28;20183;-68
2022/02/07 12:43:35;;;;;;;12.00;4.70;;;;;;;10.78;48.92;101253.66;5081198;28;20445;-66
2022/02/07 12:46:06;;;;;;;10.27;4.23;;;;;;;9.74;50.81;101248.19;5080813;28;20806;-68
2022/02/07 12:48:34;;;;;;;13.33;4.50;;;;;;;10.09;49.56;101239.31;5080099;28;20415;-68
2022/02/07 12:50:59;;;;;;;8.10;4.10;;;;;;;10.20;49.23;101243.03;5080956;28;20390;-68
2022/02/07 12:53:26;;;;;;;12.93;4.67;;;;;;;9.93;50.20;101243.34;5080395;28;20430;-68
2022/02/07 12:55:57;;;;;;;15.07;4.97;;;;;;;9.59;50.57;101229.63;5080657;28;20741;-69
2022/02/07 12:58:28;;;;;;;12.67;4.80;;;;;;;10.07;49.30;101241.03;5080624;28;20639;-70
2022/02/07 13:00:53;;;;;;;12.17;5.10;;;;;;;9.42;50.93;101250.09;5081983;28;20385;-70
2022/02/07 13:03:19;;;;;;;13.83;5.47;;;;;;;8.39;55.13;101277.84;5082360;28;20424;-69
2022/02/07 13:05:45;;;;;;;16.77;4.70;;;;;;;7.43;63.17;101320.91;5081346;28;20168;-70
2022/02/07 13:08:16;;;;;;;13.40;4.87;;;;;;;6.11;68.42;101323.28;5063374;28;20419;-67
2022/02/07 13:10:42;;;;;;;13.87;4.73;;;;;;;6.09;70.46;101313.69;5080410;28;20442;-70
2022/02/07 13:13:38;;;;;;;15.00;6.90;;;;;;;6.50;70.05;101306.56;5080151;28;20684;-70
2022/02/07 13:16:04;;;;;;;11.87;3.87;;;;;;;6.29;70.32;101304.97;5080943;28;20688;-70
2022/02/07 13:18:33;;;;;;;13.43;4.73;;;;;;;6.95;68.45;101290.81;5079991;28;20437;-71
2022/02/07 13:21:03;;;;;;;12.70;3.70;;;;;;;7.66;65.65;101286.97;5079131;28;20172;-71
2022/02/07 13:23:29;;;;;;;7.73;3.23;;;;;;;7.95;63.50;101289.59;5079468;28;20401;-71
2022/02/07 13:25:56;;;;;;;12.10;3.80;;;;;;;7.96;61.02;101292.22;5079865;28;20415;-70
2022/02/07 13:28:24;;;;;;;8.47;4.10;;;;;;;8.18;60.72;101292.84;5079576;28;20412;-70
2022/02/07 13:30:56;;;;;;;7.53;3.57;;;;;;;7.79;61.68;101303.81;5079512;28;20566;-70
2022/02/07 13:33:21;;;;;;;6.77;3.30;;;;;;;7.74;61.87;101314.94;5079507;28;20764;-71
2022/02/07 13:35:49;;;;;;;7.40;2.90;;;;;;;7.26;62.81;101328.13;5079467;28;20622;-71
2022/02/07 13:38:17;;;;;;;12.53;3.70;;;;;;;7.42;62.95;101322.59;5079915;28;20526;-70
2022/02/07 13:40:47;;;;;;;9.90;3.80;;;;;;;7.61;61.10;101325.78;5090608;28;20501;-70
2022/02/07 13:43:30;;;;;;;9.23;4.03;;;;;;;7.92;61.29;101334.50;5099189;28;20809;-70
2022/02/07 13:45:57;;;;;;;7.87;3.70;;;;;;;9.77;71.06;101321.16;5101239;28;20404;-62
2022/02/07 13:48:25;;;;;;;11.17;3.93;;;;;;;11.32;63.98;101326.72;5099866;28;20548;-63
2022/02/07 13:50:53;;;;;;;7.53;3.50;;;;;;;10.75;59.34;101326.59;5081991;28;20386;-62
2022/02/07 13:53:20;;;;;;;14.77;3.93;;;;;;;12.86;56.93;101322.59;5099505;28;20475;-62
2022/02/07 13:55:53;;;;;;;8.83;3.93;;;;;;;9.15;54.83;101354.38;5068935;28;20739;-68
2022/02/07 13:58:32;;;;;;;9.57;4.77;;;;;;;8.62;57.11;101357.28;5089905;28;20429;-68
2022/02/07 14:00:58;;;;;;;14.07;5.87;;;;;;;8.20;57.81;101369.97;5099252;28;20841;-68
2022/02/07 14:03:31;;;;;;;13.17;4.40;;;;;;;8.23;58.16;101382.16;5099385;28;20377;-69
2022/02/07 14:05:57;;;;;;;15.00;4.77;;;;;;;7.83;58.97;101383.53;5099423;28;20410;-69